Airport View

Enter AWOS ICAO identifier for current METAR.

ex. KFNL

KPCZ 262235Z AUTO 32011G16KT 10SM OVC044 M02/M11 A3011 RMK AO2 T10161111

26 Feb 2020 22:38

Frequency: 118.625

Phone: 920-867-2407

Other Area AWOS: KCLI - KY50 - KATW - KSTE

TAF KATW 261740Z 2618/2718 35011KT P6SM SCT015 OVC035 TEMPO 2618/2621 5SM -SHSN BKN015 FM262100 35010G16KT P6SM -SHSN BKN025 FM270100 35008G15KT P6SM -SHSN SCT022 BKN035 FM270200 34008KT P6SM SCT024 BKN035 FM270600 32008KT P6SM SCT024 SCT250 FM271500 31010G15KT P6SM SKC